<?xml version="1.0" encoding="UTF-8" standalone="no" ?>
<gpx xmlns="http://www.topografix.com/GPX/1/1" xmlns:xsi="http://www.w3.org/2001/XMLSchema-instance" xsi:schemaLocation="http://www.topografix.com/GPX/1/1 http://www.topografix.com/GPX/1/1/gpx.xsd" version="1.1" creator="VisuGPX - https://www.visugpx.com">
  <metadata>
    <name>2024-04-29-46-Goujounac</name>
    <desc><![CDATA[Joli petit circuit de 11 km pour environ 250 m de dénivelé positif. Du Patrimoine tout le long du parcours : Gariottes  et belles pierres seront au rendez vous]]></desc>
  </metadata>
  <trk>
    <name><![CDATA[Goujounac du 29-04-2024-18837731]]></name>
    <trkseg>
      <trkpt lat="44.57706" lon="1.19598">
        <ele>226</ele>
        <time>2024-04-26T16:11:59Z</time>
      </trkpt>
      <trkpt lat="44.57697" lon="1.19592">
        <ele>226</ele>
        <time>2024-04-26T16:12:12Z</time>
      </trkpt>
      <trkpt lat="44.57665" lon="1.19642">
        <ele>225</ele>
        <time>2024-04-26T16:13:16Z</time>
      </trkpt>
      <trkpt lat="44.57634" lon="1.19672">
        <ele>224</ele>
        <time>2024-04-26T16:14:06Z</time>
      </trkpt>
      <trkpt lat="44.57631" lon="1.19676">
        <ele>224</ele>
        <time>2024-04-26T16:14:12Z</time>
      </trkpt>
      <trkpt lat="44.57614" lon="1.19652">
        <ele>225</ele>
        <time>2024-04-26T16:14:44Z</time>
      </trkpt>
      <trkpt lat="44.57607" lon="1.19637">
        <ele>226</ele>
        <time>2024-04-26T16:15:01Z</time>
      </trkpt>
      <trkpt lat="44.57598" lon="1.19613">
        <ele>228</ele>
        <time>2024-04-26T16:15:27Z</time>
      </trkpt>
      <trkpt lat="44.57599" lon="1.19617">
        <ele>228</ele>
        <time>2024-04-26T16:15:31Z</time>
      </trkpt>
      <trkpt lat="44.57577" lon="1.19622">
        <ele>228</ele>
        <time>2024-04-26T16:16:01Z</time>
      </trkpt>
      <trkpt lat="44.57564" lon="1.19635">
        <ele>227</ele>
        <time>2024-04-26T16:16:22Z</time>
      </trkpt>
      <trkpt lat="44.57546" lon="1.19651">
        <ele>225</ele>
        <time>2024-04-26T16:16:50Z</time>
      </trkpt>
      <trkpt lat="44.57525" lon="1.19671">
        <ele>222</ele>
        <time>2024-04-26T16:17:24Z</time>
      </trkpt>
      <trkpt lat="44.57505" lon="1.19699">
        <ele>219</ele>
        <time>2024-04-26T16:18:02Z</time>
      </trkpt>
      <trkpt lat="44.5749" lon="1.19719">
        <ele>217</ele>
        <time>2024-04-26T16:18:30Z</time>
      </trkpt>
      <trkpt lat="44.57485" lon="1.19729">
        <ele>217</ele>
        <time>2024-04-26T16:18:41Z</time>
      </trkpt>
      <trkpt lat="44.5748" lon="1.19733">
        <ele>217</ele>
        <time>2024-04-26T16:18:49Z</time>
      </trkpt>
      <trkpt lat="44.57476" lon="1.19738">
        <ele>217</ele>
        <time>2024-04-26T16:18:56Z</time>
      </trkpt>
      <trkpt lat="44.57465" lon="1.19755">
        <ele>217</ele>
        <time>2024-04-26T16:19:18Z</time>
      </trkpt>
      <trkpt lat="44.5746" lon="1.1977">
        <ele>217</ele>
        <time>2024-04-26T16:19:34Z</time>
      </trkpt>
      <trkpt lat="44.57459" lon="1.19779">
        <ele>217</ele>
        <time>2024-04-26T16:19:42Z</time>
      </trkpt>
      <trkpt lat="44.5746" lon="1.19782">
        <ele>217</ele>
        <time>2024-04-26T16:19:45Z</time>
      </trkpt>
      <trkpt lat="44.57459" lon="1.19779">
        <ele>217</ele>
        <time>2024-04-26T16:19:49Z</time>
      </trkpt>
      <trkpt lat="44.57408" lon="1.19844">
        <ele>225</ele>
        <time>2024-04-26T16:21:21Z</time>
      </trkpt>
      <trkpt lat="44.57359" lon="1.19908">
        <ele>243</ele>
        <time>2024-04-26T16:22:50Z</time>
      </trkpt>
      <trkpt lat="44.57308" lon="1.19999">
        <ele>252</ele>
        <time>2024-04-26T16:24:40Z</time>
      </trkpt>
      <trkpt lat="44.57302" lon="1.20009">
        <ele>252</ele>
        <time>2024-04-26T16:24:52Z</time>
      </trkpt>
      <trkpt lat="44.57223" lon="1.20036">
        <ele>248</ele>
        <time>2024-04-26T16:26:41Z</time>
      </trkpt>
      <trkpt lat="44.57219" lon="1.20037">
        <ele>248</ele>
        <time>2024-04-26T16:26:46Z</time>
      </trkpt>
      <trkpt lat="44.57193" lon="1.20171">
        <ele>231</ele>
        <time>2024-04-26T16:28:58Z</time>
      </trkpt>
      <trkpt lat="44.5719" lon="1.20182">
        <ele>231</ele>
        <time>2024-04-26T16:29:09Z</time>
      </trkpt>
      <trkpt lat="44.57143" lon="1.20259">
        <ele>220</ele>
        <time>2024-04-26T16:30:46Z</time>
      </trkpt>
      <trkpt lat="44.57141" lon="1.20263">
        <ele>219</ele>
        <time>2024-04-26T16:30:51Z</time>
      </trkpt>
      <trkpt lat="44.57123" lon="1.20299">
        <ele>217</ele>
        <time>2024-04-26T16:31:32Z</time>
      </trkpt>
      <trkpt lat="44.57102" lon="1.20395">
        <ele>216</ele>
        <time>2024-04-26T16:33:08Z</time>
      </trkpt>
      <trkpt lat="44.57101" lon="1.20421">
        <ele>216</ele>
        <time>2024-04-26T16:33:33Z</time>
      </trkpt>
      <trkpt lat="44.57098" lon="1.20563">
        <ele>212</ele>
        <time>2024-04-26T16:35:48Z</time>
      </trkpt>
      <trkpt lat="44.57096" lon="1.20625">
        <ele>210</ele>
        <time>2024-04-26T16:36:47Z</time>
      </trkpt>
      <trkpt lat="44.57095" lon="1.20627">
        <ele>210</ele>
        <time>2024-04-26T16:36:49Z</time>
      </trkpt>
      <trkpt lat="44.57087" lon="1.20641">
        <ele>210</ele>
        <time>2024-04-26T16:37:06Z</time>
      </trkpt>
      <trkpt lat="44.57058" lon="1.20657">
        <ele>211</ele>
        <time>2024-04-26T16:37:48Z</time>
      </trkpt>
      <trkpt lat="44.5704" lon="1.20655">
        <ele>212</ele>
        <time>2024-04-26T16:38:12Z</time>
      </trkpt>
      <trkpt lat="44.57023" lon="1.20652">
        <ele>213</ele>
        <time>2024-04-26T16:38:35Z</time>
      </trkpt>
      <trkpt lat="44.56996" lon="1.2063">
        <ele>215</ele>
        <time>2024-04-26T16:39:16Z</time>
      </trkpt>
      <trkpt lat="44.56989" lon="1.20619">
        <ele>216</ele>
        <time>2024-04-26T16:39:30Z</time>
      </trkpt>
      <trkpt lat="44.56965" lon="1.20576">
        <ele>218</ele>
        <time>2024-04-26T16:40:22Z</time>
      </trkpt>
      <trkpt lat="44.56947" lon="1.20566">
        <ele>219</ele>
        <time>2024-04-26T16:40:48Z</time>
      </trkpt>
      <trkpt lat="44.56954" lon="1.2057">
        <ele>218</ele>
        <time>2024-04-26T16:40:58Z</time>
      </trkpt>
      <trkpt lat="44.56961" lon="1.20537">
        <ele>223</ele>
        <time>2024-04-26T16:41:31Z</time>
      </trkpt>
      <trkpt lat="44.56976" lon="1.20488">
        <ele>227</ele>
        <time>2024-04-26T16:42:21Z</time>
      </trkpt>
      <trkpt lat="44.56978" lon="1.20479">
        <ele>227</ele>
        <time>2024-04-26T16:42:30Z</time>
      </trkpt>
      <trkpt lat="44.56976" lon="1.20488">
        <ele>227</ele>
        <time>2024-04-26T16:42:39Z</time>
      </trkpt>
      <trkpt lat="44.56934" lon="1.20449">
        <ele>236</ele>
        <time>2024-04-26T16:43:47Z</time>
      </trkpt>
      <trkpt lat="44.56932" lon="1.20439">
        <ele>237</ele>
        <time>2024-04-26T16:43:56Z</time>
      </trkpt>
      <trkpt lat="44.56924" lon="1.20409">
        <ele>242</ele>
        <time>2024-04-26T16:44:27Z</time>
      </trkpt>
      <trkpt lat="44.56905" lon="1.20378">
        <ele>246</ele>
        <time>2024-04-26T16:45:06Z</time>
      </trkpt>
      <trkpt lat="44.56903" lon="1.20377">
        <ele>246</ele>
        <time>2024-04-26T16:45:09Z</time>
      </trkpt>
      <trkpt lat="44.56887" lon="1.20373">
        <ele>249</ele>
        <time>2024-04-26T16:45:30Z</time>
      </trkpt>
      <trkpt lat="44.56858" lon="1.20369">
        <ele>253</ele>
        <time>2024-04-26T16:46:09Z</time>
      </trkpt>
      <trkpt lat="44.56808" lon="1.20346">
        <ele>260</ele>
        <time>2024-04-26T16:47:19Z</time>
      </trkpt>
      <trkpt lat="44.56801" lon="1.20341">
        <ele>261</ele>
        <time>2024-04-26T16:47:30Z</time>
      </trkpt>
      <trkpt lat="44.56793" lon="1.20335">
        <ele>262</ele>
        <time>2024-04-26T16:47:42Z</time>
      </trkpt>
      <trkpt lat="44.56774" lon="1.20315">
        <ele>265</ele>
        <time>2024-04-26T16:48:14Z</time>
      </trkpt>
      <trkpt lat="44.56762" lon="1.20291">
        <ele>268</ele>
        <time>2024-04-26T16:48:42Z</time>
      </trkpt>
      <trkpt lat="44.56762" lon="1.2028">
        <ele>268</ele>
        <time>2024-04-26T16:48:52Z</time>
      </trkpt>
      <trkpt lat="44.56762" lon="1.20227">
        <ele>270</ele>
        <time>2024-04-26T16:49:42Z</time>
      </trkpt>
      <trkpt lat="44.56763" lon="1.20187">
        <ele>271</ele>
        <time>2024-04-26T16:50:20Z</time>
      </trkpt>
      <trkpt lat="44.56763" lon="1.20123">
        <ele>272</ele>
        <time>2024-04-26T16:51:21Z</time>
      </trkpt>
      <trkpt lat="44.56763" lon="1.20117">
        <ele>272</ele>
        <time>2024-04-26T16:51:27Z</time>
      </trkpt>
      <trkpt lat="44.56753" lon="1.20077">
        <ele>274</ele>
        <time>2024-04-26T16:52:07Z</time>
      </trkpt>
      <trkpt lat="44.56739" lon="1.20045">
        <ele>276</ele>
        <time>2024-04-26T16:52:43Z</time>
      </trkpt>
      <trkpt lat="44.56726" lon="1.19991">
        <ele>279</ele>
        <time>2024-04-26T16:53:37Z</time>
      </trkpt>
      <trkpt lat="44.56711" lon="1.19958">
        <ele>279</ele>
        <time>2024-04-26T16:54:14Z</time>
      </trkpt>
      <trkpt lat="44.56713" lon="1.19957">
        <ele>279</ele>
        <time>2024-04-26T16:54:17Z</time>
      </trkpt>
      <trkpt lat="44.56774" lon="1.19923">
        <ele>283</ele>
        <time>2024-04-26T16:55:45Z</time>
      </trkpt>
      <trkpt lat="44.56794" lon="1.19902">
        <ele>283</ele>
        <time>2024-04-26T16:56:18Z</time>
      </trkpt>
      <trkpt lat="44.56859" lon="1.1978">
        <ele>284</ele>
        <time>2024-04-26T16:58:43Z</time>
      </trkpt>
      <trkpt lat="44.56853" lon="1.19777">
        <ele>284</ele>
        <time>2024-04-26T16:58:52Z</time>
      </trkpt>
      <trkpt lat="44.56781" lon="1.1974">
        <ele>282</ele>
        <time>2024-04-26T17:00:34Z</time>
      </trkpt>
      <trkpt lat="44.56778" lon="1.19733">
        <ele>281</ele>
        <time>2024-04-26T17:00:42Z</time>
      </trkpt>
      <trkpt lat="44.56764" lon="1.19726">
        <ele>280</ele>
        <time>2024-04-26T17:01:01Z</time>
      </trkpt>
      <trkpt lat="44.56759" lon="1.19729">
        <ele>280</ele>
        <time>2024-04-26T17:01:09Z</time>
      </trkpt>
      <trkpt lat="44.56703" lon="1.19713">
        <ele>278</ele>
        <time>2024-04-26T17:02:25Z</time>
      </trkpt>
      <trkpt lat="44.56697" lon="1.19707">
        <ele>278</ele>
        <time>2024-04-26T17:02:35Z</time>
      </trkpt>
      <trkpt lat="44.56696" lon="1.19691">
        <ele>279</ele>
        <time>2024-04-26T17:02:50Z</time>
      </trkpt>
      <trkpt lat="44.56719" lon="1.19652">
        <ele>279</ele>
        <time>2024-04-26T17:03:38Z</time>
      </trkpt>
      <trkpt lat="44.56782" lon="1.19549">
        <ele>272</ele>
        <time>2024-04-26T17:05:47Z</time>
      </trkpt>
      <trkpt lat="44.5682" lon="1.19489">
        <ele>272</ele>
        <time>2024-04-26T17:07:04Z</time>
      </trkpt>
      <trkpt lat="44.56822" lon="1.19483">
        <ele>272</ele>
        <time>2024-04-26T17:07:10Z</time>
      </trkpt>
      <trkpt lat="44.56858" lon="1.19361">
        <ele>272</ele>
        <time>2024-04-26T17:09:15Z</time>
      </trkpt>
      <trkpt lat="44.56858" lon="1.19361">
        <ele>272</ele>
        <time>2024-04-26T17:09:15Z</time>
      </trkpt>
      <trkpt lat="44.56807" lon="1.19365">
        <ele>272</ele>
        <time>2024-04-26T17:10:24Z</time>
      </trkpt>
      <trkpt lat="44.56749" lon="1.19373">
        <ele>269</ele>
        <time>2024-04-26T17:11:41Z</time>
      </trkpt>
      <trkpt lat="44.56661" lon="1.19383">
        <ele>261</ele>
        <time>2024-04-26T17:13:39Z</time>
      </trkpt>
      <trkpt lat="44.56643" lon="1.19385">
        <ele>260</ele>
        <time>2024-04-26T17:14:03Z</time>
      </trkpt>
      <trkpt lat="44.56618" lon="1.19384">
        <ele>259</ele>
        <time>2024-04-26T17:14:37Z</time>
      </trkpt>
      <trkpt lat="44.56606" lon="1.1938">
        <ele>258</ele>
        <time>2024-04-26T17:14:53Z</time>
      </trkpt>
      <trkpt lat="44.56592" lon="1.19375">
        <ele>257</ele>
        <time>2024-04-26T17:15:12Z</time>
      </trkpt>
      <trkpt lat="44.56571" lon="1.19359">
        <ele>256</ele>
        <time>2024-04-26T17:15:44Z</time>
      </trkpt>
      <trkpt lat="44.56526" lon="1.19343">
        <ele>251</ele>
        <time>2024-04-26T17:16:46Z</time>
      </trkpt>
      <trkpt lat="44.56472" lon="1.1932">
        <ele>246</ele>
        <time>2024-04-26T17:18:02Z</time>
      </trkpt>
      <trkpt lat="44.56441" lon="1.19309">
        <ele>244</ele>
        <time>2024-04-26T17:18:44Z</time>
      </trkpt>
      <trkpt lat="44.56438" lon="1.19307">
        <ele>244</ele>
        <time>2024-04-26T17:18:49Z</time>
      </trkpt>
      <trkpt lat="44.56405" lon="1.19282">
        <ele>241</ele>
        <time>2024-04-26T17:19:39Z</time>
      </trkpt>
      <trkpt lat="44.56336" lon="1.19271">
        <ele>234</ele>
        <time>2024-04-26T17:21:11Z</time>
      </trkpt>
      <trkpt lat="44.56317" lon="1.19263">
        <ele>233</ele>
        <time>2024-04-26T17:21:38Z</time>
      </trkpt>
      <trkpt lat="44.56299" lon="1.19255">
        <ele>231</ele>
        <time>2024-04-26T17:22:03Z</time>
      </trkpt>
      <trkpt lat="44.56271" lon="1.19184">
        <ele>230</ele>
        <time>2024-04-26T17:23:20Z</time>
      </trkpt>
      <trkpt lat="44.56267" lon="1.19168">
        <ele>230</ele>
        <time>2024-04-26T17:23:36Z</time>
      </trkpt>
      <trkpt lat="44.56265" lon="1.19162">
        <ele>230</ele>
        <time>2024-04-26T17:23:43Z</time>
      </trkpt>
      <trkpt lat="44.56269" lon="1.19142">
        <ele>231</ele>
        <time>2024-04-26T17:24:02Z</time>
      </trkpt>
      <trkpt lat="44.56278" lon="1.19114">
        <ele>232</ele>
        <time>2024-04-26T17:24:32Z</time>
      </trkpt>
      <trkpt lat="44.56281" lon="1.19097">
        <ele>233</ele>
        <time>2024-04-26T17:24:48Z</time>
      </trkpt>
      <trkpt lat="44.56276" lon="1.19081">
        <ele>234</ele>
        <time>2024-04-26T17:25:05Z</time>
      </trkpt>
      <trkpt lat="44.56267" lon="1.19059">
        <ele>236</ele>
        <time>2024-04-26T17:25:29Z</time>
      </trkpt>
      <trkpt lat="44.56234" lon="1.18998">
        <ele>244</ele>
        <time>2024-04-26T17:26:42Z</time>
      </trkpt>
      <trkpt lat="44.56231" lon="1.18992">
        <ele>244</ele>
        <time>2024-04-26T17:26:49Z</time>
      </trkpt>
      <trkpt lat="44.56242" lon="1.18974">
        <ele>244</ele>
        <time>2024-04-26T17:27:11Z</time>
      </trkpt>
      <trkpt lat="44.56256" lon="1.18946">
        <ele>244</ele>
        <time>2024-04-26T17:27:44Z</time>
      </trkpt>
      <trkpt lat="44.56293" lon="1.18855">
        <ele>244</ele>
        <time>2024-04-26T17:29:23Z</time>
      </trkpt>
      <trkpt lat="44.56306" lon="1.18822">
        <ele>246</ele>
        <time>2024-04-26T17:29:59Z</time>
      </trkpt>
      <trkpt lat="44.56319" lon="1.18763">
        <ele>251</ele>
        <time>2024-04-26T17:30:58Z</time>
      </trkpt>
      <trkpt lat="44.56331" lon="1.18693">
        <ele>255</ele>
        <time>2024-04-26T17:32:06Z</time>
      </trkpt>
      <trkpt lat="44.56337" lon="1.18673">
        <ele>255</ele>
        <time>2024-04-26T17:32:27Z</time>
      </trkpt>
      <trkpt lat="44.56343" lon="1.18662">
        <ele>255</ele>
        <time>2024-04-26T17:32:40Z</time>
      </trkpt>
      <trkpt lat="44.56342" lon="1.18661">
        <ele>255</ele>
        <time>2024-04-26T17:32:42Z</time>
      </trkpt>
      <trkpt lat="44.56343" lon="1.18662">
        <ele>255</ele>
        <time>2024-04-26T17:32:44Z</time>
      </trkpt>
      <trkpt lat="44.56341" lon="1.18609">
        <ele>254</ele>
        <time>2024-04-26T17:33:34Z</time>
      </trkpt>
      <trkpt lat="44.56339" lon="1.18546">
        <ele>254</ele>
        <time>2024-04-26T17:34:34Z</time>
      </trkpt>
      <trkpt lat="44.56351" lon="1.18478">
        <ele>253</ele>
        <time>2024-04-26T17:35:41Z</time>
      </trkpt>
      <trkpt lat="44.56359" lon="1.18437">
        <ele>252</ele>
        <time>2024-04-26T17:36:21Z</time>
      </trkpt>
      <trkpt lat="44.56372" lon="1.18378">
        <ele>250</ele>
        <time>2024-04-26T17:37:20Z</time>
      </trkpt>
      <trkpt lat="44.56397" lon="1.18324">
        <ele>245</ele>
        <time>2024-04-26T17:38:21Z</time>
      </trkpt>
      <trkpt lat="44.56427" lon="1.18258">
        <ele>239</ele>
        <time>2024-04-26T17:39:35Z</time>
      </trkpt>
      <trkpt lat="44.56446" lon="1.18191">
        <ele>236</ele>
        <time>2024-04-26T17:40:44Z</time>
      </trkpt>
      <trkpt lat="44.56452" lon="1.18172">
        <ele>236</ele>
        <time>2024-04-26T17:41:04Z</time>
      </trkpt>
      <trkpt lat="44.56465" lon="1.18137">
        <ele>232</ele>
        <time>2024-04-26T17:41:41Z</time>
      </trkpt>
      <trkpt lat="44.56466" lon="1.18139">
        <ele>232</ele>
        <time>2024-04-26T17:41:44Z</time>
      </trkpt>
      <trkpt lat="44.56471" lon="1.18149">
        <ele>232</ele>
        <time>2024-04-26T17:41:55Z</time>
      </trkpt>
      <trkpt lat="44.56523" lon="1.18214">
        <ele>228</ele>
        <time>2024-04-26T17:43:28Z</time>
      </trkpt>
      <trkpt lat="44.56542" lon="1.18237">
        <ele>230</ele>
        <time>2024-04-26T17:44:02Z</time>
      </trkpt>
      <trkpt lat="44.5657" lon="1.1828">
        <ele>233</ele>
        <time>2024-04-26T17:44:57Z</time>
      </trkpt>
      <trkpt lat="44.56612" lon="1.18317">
        <ele>237</ele>
        <time>2024-04-26T17:46:03Z</time>
      </trkpt>
      <trkpt lat="44.56613" lon="1.18316">
        <ele>237</ele>
        <time>2024-04-26T17:46:05Z</time>
      </trkpt>
      <trkpt lat="44.56665" lon="1.1826">
        <ele>239</ele>
        <time>2024-04-26T17:47:32Z</time>
      </trkpt>
      <trkpt lat="44.56719" lon="1.18212">
        <ele>234</ele>
        <time>2024-04-26T17:48:57Z</time>
      </trkpt>
      <trkpt lat="44.56771" lon="1.18165">
        <ele>229</ele>
        <time>2024-04-26T17:50:20Z</time>
      </trkpt>
      <trkpt lat="44.56789" lon="1.18154">
        <ele>228</ele>
        <time>2024-04-26T17:50:46Z</time>
      </trkpt>
      <trkpt lat="44.56811" lon="1.18153">
        <ele>227</ele>
        <time>2024-04-26T17:51:16Z</time>
      </trkpt>
      <trkpt lat="44.56827" lon="1.18152">
        <ele>226</ele>
        <time>2024-04-26T17:51:37Z</time>
      </trkpt>
      <trkpt lat="44.56869" lon="1.18119">
        <ele>223</ele>
        <time>2024-04-26T17:52:41Z</time>
      </trkpt>
      <trkpt lat="44.56872" lon="1.18113">
        <ele>223</ele>
        <time>2024-04-26T17:52:48Z</time>
      </trkpt>
      <trkpt lat="44.56881" lon="1.18089">
        <ele>222</ele>
        <time>2024-04-26T17:53:14Z</time>
      </trkpt>
      <trkpt lat="44.56877" lon="1.18057">
        <ele>221</ele>
        <time>2024-04-26T17:53:45Z</time>
      </trkpt>
      <trkpt lat="44.56902" lon="1.18028">
        <ele>220</ele>
        <time>2024-04-26T17:54:28Z</time>
      </trkpt>
      <trkpt lat="44.56918" lon="1.1802">
        <ele>220</ele>
        <time>2024-04-26T17:54:51Z</time>
      </trkpt>
      <trkpt lat="44.56936" lon="1.18023">
        <ele>219</ele>
        <time>2024-04-26T17:55:15Z</time>
      </trkpt>
      <trkpt lat="44.56946" lon="1.18021">
        <ele>218</ele>
        <time>2024-04-26T17:55:28Z</time>
      </trkpt>
      <trkpt lat="44.56973" lon="1.17996">
        <ele>217</ele>
        <time>2024-04-26T17:56:12Z</time>
      </trkpt>
      <trkpt lat="44.56988" lon="1.17978">
        <ele>216</ele>
        <time>2024-04-26T17:56:38Z</time>
      </trkpt>
      <trkpt lat="44.5702" lon="1.17921">
        <ele>214</ele>
        <time>2024-04-26T17:57:47Z</time>
      </trkpt>
      <trkpt lat="44.57039" lon="1.17888">
        <ele>211</ele>
        <time>2024-04-26T17:58:27Z</time>
      </trkpt>
      <trkpt lat="44.5705" lon="1.17863">
        <ele>210</ele>
        <time>2024-04-26T17:58:55Z</time>
      </trkpt>
      <trkpt lat="44.57061" lon="1.17849">
        <ele>208</ele>
        <time>2024-04-26T17:59:15Z</time>
      </trkpt>
      <trkpt lat="44.57077" lon="1.17834">
        <ele>207</ele>
        <time>2024-04-26T17:59:41Z</time>
      </trkpt>
      <trkpt lat="44.57107" lon="1.17781">
        <ele>206</ele>
        <time>2024-04-26T18:00:45Z</time>
      </trkpt>
      <trkpt lat="44.57116" lon="1.17771">
        <ele>207</ele>
        <time>2024-04-26T18:01:00Z</time>
      </trkpt>
      <trkpt lat="44.57092" lon="1.1776">
        <ele>205</ele>
        <time>2024-04-26T18:01:34Z</time>
      </trkpt>
      <trkpt lat="44.57081" lon="1.17742">
        <ele>204</ele>
        <time>2024-04-26T18:01:57Z</time>
      </trkpt>
      <trkpt lat="44.57082" lon="1.17744">
        <ele>204</ele>
        <time>2024-04-26T18:01:59Z</time>
      </trkpt>
      <trkpt lat="44.57108" lon="1.17744">
        <ele>206</ele>
        <time>2024-04-26T18:02:34Z</time>
      </trkpt>
      <trkpt lat="44.57169" lon="1.1775">
        <ele>211</ele>
        <time>2024-04-26T18:03:55Z</time>
      </trkpt>
      <trkpt lat="44.57195" lon="1.17755">
        <ele>211</ele>
        <time>2024-04-26T18:04:30Z</time>
      </trkpt>
      <trkpt lat="44.5722" lon="1.17759">
        <ele>211</ele>
        <time>2024-04-26T18:05:04Z</time>
      </trkpt>
      <trkpt lat="44.57283" lon="1.17747">
        <ele>211</ele>
        <time>2024-04-26T18:06:29Z</time>
      </trkpt>
      <trkpt lat="44.57303" lon="1.17749">
        <ele>209</ele>
        <time>2024-04-26T18:06:55Z</time>
      </trkpt>
      <trkpt lat="44.57309" lon="1.17749">
        <ele>209</ele>
        <time>2024-04-26T18:07:03Z</time>
      </trkpt>
      <trkpt lat="44.57333" lon="1.17764">
        <ele>208</ele>
        <time>2024-04-26T18:07:38Z</time>
      </trkpt>
      <trkpt lat="44.574" lon="1.1779">
        <ele>208</ele>
        <time>2024-04-26T18:09:11Z</time>
      </trkpt>
      <trkpt lat="44.57425" lon="1.17805">
        <ele>208</ele>
        <time>2024-04-26T18:09:48Z</time>
      </trkpt>
      <trkpt lat="44.5743" lon="1.1781">
        <ele>208</ele>
        <time>2024-04-26T18:09:56Z</time>
      </trkpt>
      <trkpt lat="44.57453" lon="1.17835">
        <ele>207</ele>
        <time>2024-04-26T18:10:35Z</time>
      </trkpt>
      <trkpt lat="44.57512" lon="1.17891">
        <ele>210</ele>
        <time>2024-04-26T18:12:10Z</time>
      </trkpt>
      <trkpt lat="44.57532" lon="1.17904">
        <ele>212</ele>
        <time>2024-04-26T18:12:39Z</time>
      </trkpt>
      <trkpt lat="44.57537" lon="1.17907">
        <ele>213</ele>
        <time>2024-04-26T18:12:46Z</time>
      </trkpt>
      <trkpt lat="44.57588" lon="1.17976">
        <ele>220</ele>
        <time>2024-04-26T18:14:21Z</time>
      </trkpt>
      <trkpt lat="44.57639" lon="1.1803">
        <ele>224</ele>
        <time>2024-04-26T18:15:46Z</time>
      </trkpt>
      <trkpt lat="44.5764" lon="1.18033">
        <ele>225</ele>
        <time>2024-04-26T18:15:49Z</time>
      </trkpt>
      <trkpt lat="44.57653" lon="1.18067">
        <ele>227</ele>
        <time>2024-04-26T18:16:26Z</time>
      </trkpt>
      <trkpt lat="44.57668" lon="1.18099">
        <ele>230</ele>
        <time>2024-04-26T18:17:02Z</time>
      </trkpt>
      <trkpt lat="44.57699" lon="1.18133">
        <ele>235</ele>
        <time>2024-04-26T18:17:55Z</time>
      </trkpt>
      <trkpt lat="44.57738" lon="1.18167">
        <ele>238</ele>
        <time>2024-04-26T18:18:56Z</time>
      </trkpt>
      <trkpt lat="44.57752" lon="1.18182">
        <ele>239</ele>
        <time>2024-04-26T18:19:20Z</time>
      </trkpt>
      <trkpt lat="44.57773" lon="1.18205">
        <ele>242</ele>
        <time>2024-04-26T18:19:55Z</time>
      </trkpt>
      <trkpt lat="44.57817" lon="1.18259">
        <ele>245</ele>
        <time>2024-04-26T18:21:13Z</time>
      </trkpt>
      <trkpt lat="44.57819" lon="1.18266">
        <ele>245</ele>
        <time>2024-04-26T18:21:20Z</time>
      </trkpt>
      <trkpt lat="44.57823" lon="1.18276">
        <ele>246</ele>
        <time>2024-04-26T18:21:31Z</time>
      </trkpt>
      <trkpt lat="44.5783" lon="1.18274">
        <ele>246</ele>
        <time>2024-04-26T18:21:41Z</time>
      </trkpt>
      <trkpt lat="44.57831" lon="1.18297">
        <ele>246</ele>
        <time>2024-04-26T18:22:03Z</time>
      </trkpt>
      <trkpt lat="44.57831" lon="1.183">
        <ele>246</ele>
        <time>2024-04-26T18:22:05Z</time>
      </trkpt>
      <trkpt lat="44.5784" lon="1.183">
        <ele>246</ele>
        <time>2024-04-26T18:22:17Z</time>
      </trkpt>
      <trkpt lat="44.5787" lon="1.18332">
        <ele>246</ele>
        <time>2024-04-26T18:23:08Z</time>
      </trkpt>
      <trkpt lat="44.57893" lon="1.18352">
        <ele>245</ele>
        <time>2024-04-26T18:23:44Z</time>
      </trkpt>
      <trkpt lat="44.5795" lon="1.18387">
        <ele>241</ele>
        <time>2024-04-26T18:25:07Z</time>
      </trkpt>
      <trkpt lat="44.58013" lon="1.18424">
        <ele>238</ele>
        <time>2024-04-26T18:26:38Z</time>
      </trkpt>
      <trkpt lat="44.58042" lon="1.18443">
        <ele>237</ele>
        <time>2024-04-26T18:27:21Z</time>
      </trkpt>
      <trkpt lat="44.58078" lon="1.18468">
        <ele>234</ele>
        <time>2024-04-26T18:28:14Z</time>
      </trkpt>
      <trkpt lat="44.58104" lon="1.18503">
        <ele>233</ele>
        <time>2024-04-26T18:29:02Z</time>
      </trkpt>
      <trkpt lat="44.58118" lon="1.18515">
        <ele>234</ele>
        <time>2024-04-26T18:29:24Z</time>
      </trkpt>
      <trkpt lat="44.58156" lon="1.18535">
        <ele>236</ele>
        <time>2024-04-26T18:30:18Z</time>
      </trkpt>
      <trkpt lat="44.58226" lon="1.18572">
        <ele>242</ele>
        <time>2024-04-26T18:31:58Z</time>
      </trkpt>
      <trkpt lat="44.58241" lon="1.18587">
        <ele>244</ele>
        <time>2024-04-26T18:32:23Z</time>
      </trkpt>
      <trkpt lat="44.58268" lon="1.18618">
        <ele>248</ele>
        <time>2024-04-26T18:33:09Z</time>
      </trkpt>
      <trkpt lat="44.58341" lon="1.18703">
        <ele>252</ele>
        <time>2024-04-26T18:35:16Z</time>
      </trkpt>
      <trkpt lat="44.58356" lon="1.18716">
        <ele>253</ele>
        <time>2024-04-26T18:35:39Z</time>
      </trkpt>
      <trkpt lat="44.5838" lon="1.18738">
        <ele>253</ele>
        <time>2024-04-26T18:36:18Z</time>
      </trkpt>
      <trkpt lat="44.58387" lon="1.18752">
        <ele>253</ele>
        <time>2024-04-26T18:36:34Z</time>
      </trkpt>
      <trkpt lat="44.58403" lon="1.18809">
        <ele>255</ele>
        <time>2024-04-26T18:37:32Z</time>
      </trkpt>
      <trkpt lat="44.58417" lon="1.18871">
        <ele>258</ele>
        <time>2024-04-26T18:38:34Z</time>
      </trkpt>
      <trkpt lat="44.58421" lon="1.18903">
        <ele>260</ele>
        <time>2024-04-26T18:39:05Z</time>
      </trkpt>
      <trkpt lat="44.58428" lon="1.18931">
        <ele>262</ele>
        <time>2024-04-26T18:39:33Z</time>
      </trkpt>
      <trkpt lat="44.58443" lon="1.18977">
        <ele>265</ele>
        <time>2024-04-26T18:40:21Z</time>
      </trkpt>
      <trkpt lat="44.58457" lon="1.19005">
        <ele>266</ele>
        <time>2024-04-26T18:40:54Z</time>
      </trkpt>
      <trkpt lat="44.58465" lon="1.19029">
        <ele>265</ele>
        <time>2024-04-26T18:41:19Z</time>
      </trkpt>
      <trkpt lat="44.5847" lon="1.19065">
        <ele>263</ele>
        <time>2024-04-26T18:41:54Z</time>
      </trkpt>
      <trkpt lat="44.58477" lon="1.19082">
        <ele>262</ele>
        <time>2024-04-26T18:42:12Z</time>
      </trkpt>
      <trkpt lat="44.58491" lon="1.19098">
        <ele>261</ele>
        <time>2024-04-26T18:42:36Z</time>
      </trkpt>
      <trkpt lat="44.5851" lon="1.1911">
        <ele>259</ele>
        <time>2024-04-26T18:43:04Z</time>
      </trkpt>
      <trkpt lat="44.58581" lon="1.19156">
        <ele>253</ele>
        <time>2024-04-26T18:44:49Z</time>
      </trkpt>
      <trkpt lat="44.58607" lon="1.19197">
        <ele>253</ele>
        <time>2024-04-26T18:45:41Z</time>
      </trkpt>
      <trkpt lat="44.5861" lon="1.1921">
        <ele>254</ele>
        <time>2024-04-26T18:45:54Z</time>
      </trkpt>
      <trkpt lat="44.5861" lon="1.19214">
        <ele>254</ele>
        <time>2024-04-26T18:45:58Z</time>
      </trkpt>
      <trkpt lat="44.58621" lon="1.19232">
        <ele>255</ele>
        <time>2024-04-26T18:46:20Z</time>
      </trkpt>
      <trkpt lat="44.58631" lon="1.19289">
        <ele>259</ele>
        <time>2024-04-26T18:47:16Z</time>
      </trkpt>
      <trkpt lat="44.58638" lon="1.19346">
        <ele>263</ele>
        <time>2024-04-26T18:48:11Z</time>
      </trkpt>
      <trkpt lat="44.58656" lon="1.19412">
        <ele>265</ele>
        <time>2024-04-26T18:49:18Z</time>
      </trkpt>
      <trkpt lat="44.58668" lon="1.19459">
        <ele>266</ele>
        <time>2024-04-26T18:50:05Z</time>
      </trkpt>
      <trkpt lat="44.58684" lon="1.19501">
        <ele>268</ele>
        <time>2024-04-26T18:50:51Z</time>
      </trkpt>
      <trkpt lat="44.58695" lon="1.19524">
        <ele>269</ele>
        <time>2024-04-26T18:51:17Z</time>
      </trkpt>
      <trkpt lat="44.58701" lon="1.19543">
        <ele>270</ele>
        <time>2024-04-26T18:51:37Z</time>
      </trkpt>
      <trkpt lat="44.58723" lon="1.19586">
        <ele>273</ele>
        <time>2024-04-26T18:52:27Z</time>
      </trkpt>
      <trkpt lat="44.58732" lon="1.19621">
        <ele>275</ele>
        <time>2024-04-26T18:53:02Z</time>
      </trkpt>
      <trkpt lat="44.58742" lon="1.19658">
        <ele>278</ele>
        <time>2024-04-26T18:53:40Z</time>
      </trkpt>
      <trkpt lat="44.58781" lon="1.19782">
        <ele>289</ele>
        <time>2024-04-26T18:55:49Z</time>
      </trkpt>
      <trkpt lat="44.58797" lon="1.19819">
        <ele>292</ele>
        <time>2024-04-26T18:56:30Z</time>
      </trkpt>
      <trkpt lat="44.5881" lon="1.19843">
        <ele>294</ele>
        <time>2024-04-26T18:56:59Z</time>
      </trkpt>
      <trkpt lat="44.58815" lon="1.19849">
        <ele>294</ele>
        <time>2024-04-26T18:57:07Z</time>
      </trkpt>
      <trkpt lat="44.58841" lon="1.1988">
        <ele>295</ele>
        <time>2024-04-26T18:57:53Z</time>
      </trkpt>
      <trkpt lat="44.58857" lon="1.19888">
        <ele>294</ele>
        <time>2024-04-26T18:58:16Z</time>
      </trkpt>
      <trkpt lat="44.58878" lon="1.19896">
        <ele>294</ele>
        <time>2024-04-26T18:58:45Z</time>
      </trkpt>
      <trkpt lat="44.58887" lon="1.19911">
        <ele>293</ele>
        <time>2024-04-26T18:59:03Z</time>
      </trkpt>
      <trkpt lat="44.58889" lon="1.19921">
        <ele>293</ele>
        <time>2024-04-26T18:59:13Z</time>
      </trkpt>
      <trkpt lat="44.58895" lon="1.19918">
        <ele>293</ele>
        <time>2024-04-26T18:59:22Z</time>
      </trkpt>
      <trkpt lat="44.58899" lon="1.19916">
        <ele>293</ele>
        <time>2024-04-26T18:59:27Z</time>
      </trkpt>
      <trkpt lat="44.58922" lon="1.19884">
        <ele>294</ele>
        <time>2024-04-26T19:00:11Z</time>
      </trkpt>
      <trkpt lat="44.58948" lon="1.19788">
        <ele>295</ele>
        <time>2024-04-26T19:01:48Z</time>
      </trkpt>
      <trkpt lat="44.58959" lon="1.19764">
        <ele>295</ele>
        <time>2024-04-26T19:02:15Z</time>
      </trkpt>
      <trkpt lat="44.58967" lon="1.19753">
        <ele>296</ele>
        <time>2024-04-26T19:02:30Z</time>
      </trkpt>
      <trkpt lat="44.58977" lon="1.19719">
        <ele>297</ele>
        <time>2024-04-26T19:03:05Z</time>
      </trkpt>
      <trkpt lat="44.59002" lon="1.19564">
        <ele>300</ele>
        <time>2024-04-26T19:05:36Z</time>
      </trkpt>
      <trkpt lat="44.59058" lon="1.19384">
        <ele>294</ele>
        <time>2024-04-26T19:08:43Z</time>
      </trkpt>
      <trkpt lat="44.59092" lon="1.19251">
        <ele>291</ele>
        <time>2024-04-26T19:10:57Z</time>
      </trkpt>
      <trkpt lat="44.59149" lon="1.19148">
        <ele>290</ele>
        <time>2024-04-26T19:13:01Z</time>
      </trkpt>
      <trkpt lat="44.59141" lon="1.19123">
        <ele>290</ele>
        <time>2024-04-26T19:13:27Z</time>
      </trkpt>
      <trkpt lat="44.59039" lon="1.19199">
        <ele>286</ele>
        <time>2024-04-26T19:16:01Z</time>
      </trkpt>
      <trkpt lat="44.58881" lon="1.19218">
        <ele>276</ele>
        <time>2024-04-26T19:19:33Z</time>
      </trkpt>
      <trkpt lat="44.58761" lon="1.19211">
        <ele>264</ele>
        <time>2024-04-26T19:22:13Z</time>
      </trkpt>
      <trkpt lat="44.5865" lon="1.19221">
        <ele>255</ele>
        <time>2024-04-26T19:24:42Z</time>
      </trkpt>
      <trkpt lat="44.58606" lon="1.19224">
        <ele>254</ele>
        <time>2024-04-26T19:25:40Z</time>
      </trkpt>
      <trkpt lat="44.58567" lon="1.19255">
        <ele>253</ele>
        <time>2024-04-26T19:26:40Z</time>
      </trkpt>
      <trkpt lat="44.58507" lon="1.19327">
        <ele>249</ele>
        <time>2024-04-26T19:28:26Z</time>
      </trkpt>
      <trkpt lat="44.58445" lon="1.19398">
        <ele>246</ele>
        <time>2024-04-26T19:30:12Z</time>
      </trkpt>
      <trkpt lat="44.58359" lon="1.19494">
        <ele>240</ele>
        <time>2024-04-26T19:32:39Z</time>
      </trkpt>
      <trkpt lat="44.58351" lon="1.19502">
        <ele>239</ele>
        <time>2024-04-26T19:32:52Z</time>
      </trkpt>
      <trkpt lat="44.58268" lon="1.1947">
        <ele>243</ele>
        <time>2024-04-26T19:34:47Z</time>
      </trkpt>
      <trkpt lat="44.58248" lon="1.19468">
        <ele>243</ele>
        <time>2024-04-26T19:35:14Z</time>
      </trkpt>
      <trkpt lat="44.58241" lon="1.19469">
        <ele>243</ele>
        <time>2024-04-26T19:35:23Z</time>
      </trkpt>
      <trkpt lat="44.58235" lon="1.1947">
        <ele>244</ele>
        <time>2024-04-26T19:35:31Z</time>
      </trkpt>
      <trkpt lat="44.58207" lon="1.19485">
        <ele>243</ele>
        <time>2024-04-26T19:36:11Z</time>
      </trkpt>
      <trkpt lat="44.58197" lon="1.19488">
        <ele>243</ele>
        <time>2024-04-26T19:36:25Z</time>
      </trkpt>
      <trkpt lat="44.58182" lon="1.19489">
        <ele>244</ele>
        <time>2024-04-26T19:36:45Z</time>
      </trkpt>
      <trkpt lat="44.58175" lon="1.19487">
        <ele>245</ele>
        <time>2024-04-26T19:36:54Z</time>
      </trkpt>
      <trkpt lat="44.58158" lon="1.19489">
        <ele>245</ele>
        <time>2024-04-26T19:37:17Z</time>
      </trkpt>
      <trkpt lat="44.58024" lon="1.1953">
        <ele>239</ele>
        <time>2024-04-26T19:40:20Z</time>
      </trkpt>
      <trkpt lat="44.58014" lon="1.19531">
        <ele>239</ele>
        <time>2024-04-26T19:40:33Z</time>
      </trkpt>
      <trkpt lat="44.58003" lon="1.19528">
        <ele>238</ele>
        <time>2024-04-26T19:40:48Z</time>
      </trkpt>
      <trkpt lat="44.57982" lon="1.19514">
        <ele>238</ele>
        <time>2024-04-26T19:41:19Z</time>
      </trkpt>
      <trkpt lat="44.57968" lon="1.19507">
        <ele>237</ele>
        <time>2024-04-26T19:41:39Z</time>
      </trkpt>
      <trkpt lat="44.57954" lon="1.19504">
        <ele>236</ele>
        <time>2024-04-26T19:41:58Z</time>
      </trkpt>
      <trkpt lat="44.57937" lon="1.19501">
        <ele>235</ele>
        <time>2024-04-26T19:42:21Z</time>
      </trkpt>
      <trkpt lat="44.57927" lon="1.19503">
        <ele>234</ele>
        <time>2024-04-26T19:42:35Z</time>
      </trkpt>
      <trkpt lat="44.57923" lon="1.19509">
        <ele>233</ele>
        <time>2024-04-26T19:42:42Z</time>
      </trkpt>
      <trkpt lat="44.57885" lon="1.19559">
        <ele>231</ele>
        <time>2024-04-26T19:43:52Z</time>
      </trkpt>
      <trkpt lat="44.57848" lon="1.19622">
        <ele>225</ele>
        <time>2024-04-26T19:45:09Z</time>
      </trkpt>
      <trkpt lat="44.57815" lon="1.1968">
        <ele>220</ele>
        <time>2024-04-26T19:46:20Z</time>
      </trkpt>
      <trkpt lat="44.57785" lon="1.19734">
        <ele>218</ele>
        <time>2024-04-26T19:47:25Z</time>
      </trkpt>
      <trkpt lat="44.57775" lon="1.19742">
        <ele>218</ele>
        <time>2024-04-26T19:47:40Z</time>
      </trkpt>
      <trkpt lat="44.57773" lon="1.19744">
        <ele>218</ele>
        <time>2024-04-26T19:47:44Z</time>
      </trkpt>
      <trkpt lat="44.57752" lon="1.19702">
        <ele>219</ele>
        <time>2024-04-26T19:48:33Z</time>
      </trkpt>
      <trkpt lat="44.57741" lon="1.19679">
        <ele>220</ele>
        <time>2024-04-26T19:48:59Z</time>
      </trkpt>
      <trkpt lat="44.57711" lon="1.1962">
        <ele>225</ele>
        <time>2024-04-26T19:50:08Z</time>
      </trkpt>
    </trkseg>
  </trk>
</gpx>